createdAt,value
2019-03-04T00:00:35.535Z,974.17
2019-03-04T00:01:42.627Z,974.05
2019-03-04T00:02:49.292Z,974.13
2019-03-04T00:03:56.133Z,974.07
2019-03-04T00:05:03.103Z,974.05
2019-03-04T00:06:10.154Z,974.13
2019-03-04T00:07:18.081Z,973.95
2019-03-04T00:08:24.007Z,974.12
2019-03-04T00:09:30.778Z,974.05
2019-03-04T00:10:37.566Z,974.02
2019-03-04T00:11:44.503Z,973.89
2019-03-04T00:12:51.306Z,974.08
2019-03-04T00:13:58.257Z,974.00
2019-03-04T00:15:05.011Z,973.95
2019-03-04T00:16:11.880Z,973.93
2019-03-04T00:17:18.661Z,973.98
2019-03-04T00:18:25.442Z,973.87
2019-03-04T00:19:32.267Z,974.08
2019-03-04T00:20:39.056Z,973.90
2019-03-04T00:21:45.900Z,973.93
2019-03-04T00:22:52.696Z,973.87
2019-03-04T00:23:59.643Z,973.99
2019-03-04T00:25:06.416Z,973.95
2019-03-04T00:26:13.270Z,973.95
2019-03-04T00:27:20.157Z,973.92
2019-03-04T00:28:27.041Z,973.90
2019-03-04T00:29:33.814Z,973.79
2019-03-04T00:30:40.649Z,973.78
2019-03-04T00:31:47.622Z,973.80
2019-03-04T00:32:54.501Z,973.69
2019-03-04T00:34:01.443Z,973.67
2019-03-04T00:35:08.417Z,973.74
2019-03-04T00:36:15.284Z,973.64
2019-03-04T00:37:22.075Z,973.72
2019-03-04T00:38:28.883Z,973.68
2019-03-04T00:39:35.690Z,973.75
2019-03-04T00:40:43.173Z,973.66
2019-03-04T00:41:49.681Z,973.59
2019-03-04T00:42:56.613Z,973.58
2019-03-04T00:44:03.736Z,973.57
2019-03-04T00:45:10.676Z,973.60
2019-03-04T00:46:17.743Z,973.59
2019-03-04T00:47:24.781Z,973.46
2019-03-04T00:48:31.695Z,973.64
2019-03-04T00:49:38.559Z,973.56
2019-03-04T00:50:45.625Z,973.48
2019-03-04T00:51:52.689Z,973.46
2019-03-04T00:52:59.643Z,973.57
2019-03-04T00:54:06.850Z,973.50
2019-03-04T00:55:13.301Z,973.45
2019-03-04T00:56:20.029Z,973.50
2019-03-04T00:57:26.901Z,973.51
2019-03-04T00:58:33.794Z,973.48
2019-03-04T00:59:40.708Z,973.51
2019-03-04T01:00:47.602Z,973.49
2019-03-04T01:01:54.365Z,973.41
2019-03-04T01:03:01.249Z,973.45
2019-03-04T01:04:08.256Z,973.54
2019-03-04T01:05:15.042Z,973.36
2019-03-04T01:06:21.951Z,973.28
2019-03-04T01:07:28.796Z,973.40
2019-03-04T01:08:35.700Z,973.33
2019-03-04T01:09:42.565Z,973.32
2019-03-04T01:10:49.513Z,973.32
2019-03-04T01:11:56.389Z,973.27
2019-03-04T01:13:03.360Z,973.31
2019-03-04T01:14:10.366Z,973.26
2019-03-04T01:15:17.387Z,973.20
2019-03-04T01:16:24.397Z,973.15
2019-03-04T01:17:31.229Z,973.18
2019-03-04T01:18:38.111Z,973.11
2019-03-04T01:19:44.969Z,973.12
2019-03-04T01:20:51.832Z,973.15
2019-03-04T01:21:58.692Z,973.14
2019-03-04T01:23:05.468Z,973.05
2019-03-04T01:24:12.255Z,973.02
2019-03-04T01:25:24.834Z,973.00
2019-03-04T01:26:31.700Z,973.01
2019-03-04T01:27:38.473Z,973.05
2019-03-04T01:28:45.324Z,972.94
2019-03-04T01:29:52.102Z,972.88
2019-03-04T01:30:58.973Z,972.91
2019-03-04T01:32:05.844Z,972.89
2019-03-04T01:33:12.697Z,972.65
2019-03-04T01:34:19.356Z,972.63
2019-03-04T01:35:26.258Z,972.50
2019-03-04T01:36:33.102Z,972.75
2019-03-04T01:37:39.981Z,972.71
2019-03-04T01:38:46.812Z,972.61
2019-03-04T01:39:53.676Z,972.55
2019-03-04T01:41:00.672Z,972.55
2019-03-04T01:42:07.502Z,972.47
2019-03-04T01:43:14.509Z,972.55
2019-03-04T01:44:21.240Z,972.53
2019-03-04T01:45:28.158Z,972.60
2019-03-04T01:46:35.213Z,972.60
2019-03-04T01:47:42.086Z,972.67
2019-03-04T01:48:48.846Z,972.45
2019-03-04T01:49:55.814Z,972.10
2019-03-04T01:51:02.897Z,971.92
2019-03-04T01:52:09.761Z,972.28
2019-03-04T01:53:16.706Z,972.20
2019-03-04T01:54:23.698Z,972.09
2019-03-04T01:55:30.601Z,972.09
2019-03-04T01:56:37.533Z,971.98
2019-03-04T01:57:44.405Z,971.91
2019-03-04T01:58:51.127Z,971.77
2019-03-04T01:59:58.042Z,971.68
2019-03-04T02:01:04.908Z,971.73
2019-03-04T02:02:11.770Z,971.66
2019-03-04T02:03:18.632Z,971.52
2019-03-04T02:04:25.513Z,971.43
2019-03-04T02:05:32.497Z,971.60
2019-03-04T02:06:39.365Z,971.65
2019-03-04T02:07:46.198Z,971.61
2019-03-04T02:08:52.969Z,971.52
2019-03-04T02:09:59.743Z,971.41
2019-03-04T02:11:06.722Z,971.41
2019-03-04T02:12:13.497Z,971.38
2019-03-04T02:13:20.341Z,971.49
2019-03-04T02:14:27.119Z,971.44
2019-03-04T02:15:33.997Z,971.46
2019-03-04T02:16:40.947Z,971.27
2019-03-04T02:17:47.905Z,971.34
2019-03-04T02:18:54.781Z,971.30
2019-03-04T02:20:01.848Z,971.44
2019-03-04T02:21:08.402Z,971.31
2019-03-04T02:22:15.275Z,971.33
2019-03-04T02:23:22.253Z,971.40
2019-03-04T02:24:29.001Z,971.43
2019-03-04T02:25:35.807Z,971.49
2019-03-04T02:26:42.827Z,971.55
2019-03-04T02:27:49.622Z,971.52
2019-03-04T02:28:56.581Z,971.60
2019-03-04T02:30:03.574Z,971.56
2019-03-04T02:31:10.851Z,971.55
2019-03-04T02:32:17.734Z,971.60
2019-03-04T02:33:24.674Z,971.56
2019-03-04T02:34:31.564Z,971.54
2019-03-04T02:35:39.030Z,971.53
2019-03-04T02:36:45.314Z,971.48
2019-03-04T02:37:52.242Z,971.55
2019-03-04T02:38:59.102Z,971.65
2019-03-04T02:40:05.965Z,971.48
2019-03-04T02:41:12.861Z,971.25
2019-03-04T02:42:19.710Z,971.36
2019-03-04T02:43:26.613Z,971.32
2019-03-04T02:44:33.560Z,971.30
2019-03-04T02:45:40.416Z,971.09
2019-03-04T02:46:47.313Z,971.18
2019-03-04T02:47:54.270Z,971.23
2019-03-04T02:49:01.229Z,971.11
2019-03-04T02:50:08.201Z,971.03
2019-03-04T02:51:15.186Z,971.10
2019-03-04T02:52:22.033Z,971.01
2019-03-04T02:53:28.995Z,970.91
2019-03-04T02:54:35.798Z,970.79
2019-03-04T02:55:42.637Z,970.97
2019-03-04T02:56:49.512Z,970.84
2019-03-04T02:57:56.304Z,970.82
2019-03-04T02:59:03.446Z,970.92
2019-03-04T03:00:10.408Z,970.72
2019-03-04T03:01:17.222Z,970.75
2019-03-04T03:02:24.045Z,970.63
2019-03-04T03:03:30.917Z,970.68
2019-03-04T03:04:37.887Z,970.70
2019-03-04T03:05:44.648Z,970.66
2019-03-04T03:06:51.528Z,970.74
2019-03-04T03:07:58.402Z,970.63
2019-03-04T03:09:05.345Z,970.77
2019-03-04T03:10:12.314Z,970.72
2019-03-04T03:11:19.175Z,970.77
2019-03-04T03:12:26.381Z,970.65
2019-03-04T03:13:32.825Z,970.64
2019-03-04T03:14:40.486Z,970.56
2019-03-04T03:15:46.345Z,970.42
2019-03-04T03:16:53.252Z,970.41
2019-03-04T03:18:00.035Z,970.36
2019-03-04T03:19:06.968Z,970.25
2019-03-04T03:20:13.817Z,970.15
2019-03-04T03:21:20.687Z,970.11
2019-03-04T03:22:27.508Z,969.98
2019-03-04T03:23:34.417Z,969.94
2019-03-04T03:24:41.289Z,970.03
2019-03-04T03:25:48.146Z,970.01
2019-03-04T03:26:55.049Z,969.83
2019-03-04T03:28:01.877Z,969.86
2019-03-04T03:29:08.661Z,969.72
2019-03-04T03:30:15.484Z,969.71
2019-03-04T03:31:22.440Z,969.83
2019-03-04T03:32:29.271Z,969.76
2019-03-04T03:33:36.133Z,969.81
2019-03-04T03:34:42.991Z,969.92
2019-03-04T03:35:49.865Z,969.93
2019-03-04T03:36:56.757Z,970.01
2019-03-04T03:38:03.613Z,969.90
2019-03-04T03:39:10.360Z,969.82
2019-03-04T03:40:17.439Z,969.89
2019-03-04T03:41:24.406Z,969.79
2019-03-04T03:42:31.391Z,969.85
2019-03-04T03:43:38.287Z,969.76
2019-03-04T03:44:45.111Z,969.60
2019-03-04T03:45:51.969Z,969.56
2019-03-04T03:46:58.832Z,969.59
2019-03-04T03:48:05.520Z,969.45
2019-03-04T03:49:12.371Z,969.09
2019-03-04T03:50:19.344Z,969.07
2019-03-04T03:51:26.414Z,969.24
2019-03-04T03:52:33.315Z,969.24
2019-03-04T03:53:40.363Z,969.05
2019-03-04T03:54:47.314Z,969.07
2019-03-04T03:55:54.198Z,969.34
2019-03-04T03:57:01.057Z,969.26
2019-03-04T03:58:08.106Z,969.16
2019-03-04T03:59:15.005Z,969.19
2019-03-04T04:00:21.861Z,969.19
2019-03-04T04:01:28.870Z,969.17
2019-03-04T04:02:35.957Z,969.22
2019-03-04T04:03:42.479Z,969.07
2019-03-04T04:04:49.334Z,968.99
2019-03-04T04:05:56.117Z,968.68
2019-03-04T04:07:03.273Z,968.80
2019-03-04T04:08:09.641Z,968.95
2019-03-04T04:09:16.482Z,968.94
2019-03-04T04:10:23.384Z,968.84
2019-03-04T04:11:30.228Z,968.98
2019-03-04T04:12:37.112Z,968.88
2019-03-04T04:13:44.094Z,968.87
2019-03-04T04:14:50.929Z,968.80
2019-03-04T04:15:57.821Z,968.76
2019-03-04T04:17:04.666Z,968.52
2019-03-04T04:18:11.565Z,968.44
2019-03-04T04:19:18.496Z,968.48
2019-03-04T04:20:25.277Z,968.35
2019-03-04T04:21:32.098Z,968.26
2019-03-04T04:22:38.892Z,968.16
2019-03-04T04:23:45.699Z,968.16
2019-03-04T04:24:52.408Z,968.13
2019-03-04T04:25:59.314Z,968.00
2019-03-04T04:27:06.100Z,968.08
2019-03-04T04:28:12.877Z,968.24
2019-03-04T04:29:19.659Z,968.16
2019-03-04T04:30:26.671Z,968.06
2019-03-04T04:31:33.206Z,967.93
2019-03-04T04:32:44.444Z,967.84
2019-03-04T04:33:47.085Z,967.98
2019-03-04T04:34:53.864Z,967.97
2019-03-04T04:36:00.636Z,967.88
2019-03-04T04:37:07.561Z,967.70
2019-03-04T04:38:14.465Z,967.58
2019-03-04T04:39:21.198Z,967.58
2019-03-04T04:40:27.975Z,967.39
2019-03-04T04:41:34.837Z,967.37
2019-03-04T04:42:41.701Z,967.19
2019-03-04T04:43:48.486Z,967.20
2019-03-04T04:44:55.273Z,967.24
2019-03-04T04:46:02.145Z,967.10
2019-03-04T04:47:08.967Z,967.15
2019-03-04T04:48:15.751Z,967.09
2019-03-04T04:49:22.625Z,966.95
2019-03-04T04:50:29.649Z,966.79
2019-03-04T04:51:36.748Z,966.77
2019-03-04T04:52:43.530Z,966.78
2019-03-04T04:53:50.397Z,966.89
2019-03-04T04:54:57.241Z,966.66
2019-03-04T04:56:03.960Z,966.89
2019-03-04T04:57:10.773Z,967.07
2019-03-04T04:58:17.774Z,967.16
2019-03-04T04:59:24.648Z,967.39
2019-03-04T05:00:31.516Z,967.34
2019-03-04T05:01:38.360Z,967.29
2019-03-04T05:02:45.216Z,966.92
2019-03-04T05:03:52.209Z,966.61
2019-03-04T05:04:59.345Z,966.58
2019-03-04T05:06:05.773Z,966.70
2019-03-04T05:07:12.681Z,966.87
2019-03-04T05:08:19.564Z,967.14
2019-03-04T05:09:26.444Z,967.05
2019-03-04T05:10:33.297Z,966.89
2019-03-04T05:11:40.164Z,966.95
2019-03-04T05:12:47.130Z,966.84
2019-03-04T05:13:54.197Z,966.67
2019-03-04T05:15:01.080Z,966.60
2019-03-04T05:16:08.013Z,966.61
2019-03-04T05:17:14.935Z,966.43
2019-03-04T05:18:21.828Z,966.78
2019-03-04T05:19:28.769Z,966.64
2019-03-04T05:20:35.609Z,966.48
2019-03-04T05:21:42.569Z,966.59
2019-03-04T05:22:49.454Z,966.53
2019-03-04T05:23:56.353Z,966.72
2019-03-04T05:25:03.700Z,966.48
2019-03-04T05:26:10.050Z,966.55
2019-03-04T05:27:16.894Z,966.54
2019-03-04T05:28:24.626Z,966.50
2019-03-04T05:29:30.565Z,966.53
2019-03-04T05:30:37.413Z,966.39
2019-03-04T05:31:44.302Z,966.48
2019-03-04T05:32:51.120Z,966.50
2019-03-04T05:33:58.017Z,966.48
2019-03-04T05:35:05.017Z,966.56
2019-03-04T05:36:11.589Z,966.52
2019-03-04T05:37:18.616Z,966.43
2019-03-04T05:38:25.645Z,966.38
2019-03-04T05:39:32.300Z,966.41
2019-03-04T05:40:39.225Z,966.42
2019-03-04T05:41:46.393Z,966.51
2019-03-04T05:42:53.377Z,966.62
2019-03-04T05:44:00.172Z,966.42
2019-03-04T05:45:07.127Z,966.55
2019-03-04T05:46:13.962Z,966.31
2019-03-04T05:47:20.842Z,965.92
2019-03-04T05:48:27.822Z,965.87
2019-03-04T05:49:34.709Z,965.99
2019-03-04T05:50:41.653Z,966.35
2019-03-04T05:51:48.711Z,966.26
2019-03-04T05:52:55.563Z,966.20
2019-03-04T05:54:02.756Z,966.28
2019-03-04T05:55:09.581Z,966.18
2019-03-04T05:56:16.337Z,966.25
2019-03-04T05:57:23.285Z,965.94
2019-03-04T05:58:30.094Z,965.78
2019-03-04T05:59:37.014Z,966.13
2019-03-04T06:00:43.846Z,965.93
2019-03-04T06:01:50.750Z,965.56
2019-03-04T06:02:57.597Z,965.86
2019-03-04T06:04:04.592Z,966.09
2019-03-04T06:05:11.772Z,965.84
2019-03-04T06:06:18.972Z,965.82
2019-03-04T06:07:26.390Z,965.79
2019-03-04T06:08:32.449Z,965.86
2019-03-04T06:09:39.673Z,965.66
2019-03-04T06:10:46.084Z,965.64
2019-03-04T06:11:52.905Z,965.43
2019-03-04T06:12:59.725Z,965.22
2019-03-04T06:14:06.683Z,965.50
2019-03-04T06:15:13.669Z,965.53
2019-03-04T06:16:20.512Z,965.48
2019-03-04T06:17:27.298Z,965.39
2019-03-04T06:18:34.076Z,965.22
2019-03-04T06:19:40.960Z,965.30
2019-03-04T06:20:47.862Z,965.43
2019-03-04T06:21:55.056Z,965.61
2019-03-04T06:23:02.128Z,965.56
2019-03-04T06:24:09.799Z,965.54
2019-03-04T06:25:16.411Z,965.84
2019-03-04T06:26:23.061Z,966.40
2019-03-04T06:27:30.013Z,966.48
2019-03-04T06:28:36.864Z,967.11
2019-03-04T06:29:43.732Z,967.02
2019-03-04T06:30:50.545Z,967.15
2019-03-04T06:31:57.470Z,967.41
2019-03-04T06:33:04.283Z,967.41
2019-03-04T06:34:11.001Z,967.42
2019-03-04T06:35:17.994Z,967.44
2019-03-04T06:36:25.052Z,967.47
2019-03-04T06:37:32.020Z,967.64
2019-03-04T06:38:38.820Z,967.69
2019-03-04T06:39:45.797Z,967.83
2019-03-04T06:40:52.640Z,967.91
2019-03-04T06:41:59.588Z,967.69
2019-03-04T06:43:06.344Z,967.41
2019-03-04T06:44:13.185Z,967.63
2019-03-04T06:45:20.012Z,967.28
2019-03-04T06:46:26.744Z,967.14
2019-03-04T06:47:33.712Z,967.14
2019-03-04T06:48:40.637Z,967.20
2019-03-04T06:49:47.528Z,967.06
2019-03-04T06:50:54.664Z,967.32
2019-03-04T06:52:01.493Z,966.97
2019-03-04T06:53:08.356Z,966.92
2019-03-04T06:54:15.224Z,966.99
2019-03-04T06:55:22.408Z,966.71
2019-03-04T06:56:29.301Z,966.77
2019-03-04T06:57:36.454Z,966.78
2019-03-04T06:58:43.372Z,966.98
2019-03-04T06:59:50.596Z,966.98
2019-03-04T07:00:57.693Z,966.88
2019-03-04T07:02:04.293Z,966.78
2019-03-04T07:03:11.647Z,966.94
2019-03-04T07:04:18.254Z,966.94
2019-03-04T07:05:25.243Z,966.85
2019-03-04T07:06:32.372Z,967.10
2019-03-04T07:07:39.183Z,967.27
2019-03-04T07:08:46.053Z,967.02
2019-03-04T07:09:52.819Z,967.04
2019-03-04T07:10:59.793Z,967.13
2019-03-04T07:12:06.641Z,967.07
2019-03-04T07:13:13.612Z,967.12
2019-03-04T07:14:20.480Z,967.07
2019-03-04T07:15:27.324Z,967.10
2019-03-04T07:16:34.162Z,966.99
2019-03-04T07:17:40.977Z,966.85
2019-03-04T07:18:48.057Z,966.88
2019-03-04T07:19:55.021Z,966.89
2019-03-04T07:21:02.020Z,966.88
2019-03-04T07:22:11.040Z,966.79
2019-03-04T07:23:15.655Z,966.79
2019-03-04T07:24:22.505Z,966.88
2019-03-04T07:25:29.469Z,966.92
2019-03-04T07:26:36.261Z,966.93
2019-03-04T07:27:44.381Z,967.02
2019-03-04T07:28:49.977Z,966.98
2019-03-04T07:29:56.834Z,967.02
2019-03-04T07:31:03.816Z,967.07
2019-03-04T07:32:10.666Z,967.20
2019-03-04T07:33:17.744Z,967.07
2019-03-04T07:34:24.564Z,967.25
2019-03-04T07:35:31.378Z,967.14
2019-03-04T07:36:38.254Z,967.27
2019-03-04T07:37:45.115Z,967.30
2019-03-04T07:38:52.177Z,967.41
2019-03-04T07:39:59.053Z,967.46
2019-03-04T07:41:05.913Z,967.38
2019-03-04T07:42:12.834Z,967.54
2019-03-04T07:43:19.758Z,967.48
2019-03-04T07:44:26.625Z,967.50
2019-03-04T07:45:33.589Z,967.43
2019-03-04T07:46:40.390Z,967.52
2019-03-04T07:47:47.328Z,967.65
2019-03-04T07:48:54.121Z,967.56
2019-03-04T07:50:01.055Z,967.62
2019-03-04T07:51:07.777Z,967.60
2019-03-04T07:52:14.805Z,967.60
2019-03-04T07:53:21.665Z,967.65
2019-03-04T07:54:28.477Z,967.54
2019-03-04T07:55:35.283Z,967.69
2019-03-04T07:56:42.185Z,967.45
2019-03-04T07:57:48.977Z,967.58
2019-03-04T07:58:55.796Z,967.56
2019-03-04T08:00:02.868Z,967.56
2019-03-04T08:01:09.537Z,967.74
2019-03-04T08:02:16.484Z,967.75
2019-03-04T08:03:23.308Z,967.62
2019-03-04T08:04:30.129Z,967.56
2019-03-04T08:05:37.006Z,967.61
2019-03-04T08:06:43.880Z,967.66
2019-03-04T08:07:50.714Z,967.43
2019-03-04T08:08:57.606Z,967.59
2019-03-04T08:11:15.316Z,967.51
2019-03-04T08:13:30.115Z,967.58
2019-03-04T08:14:37.149Z,967.60
2019-03-04T08:15:44.027Z,967.65
2019-03-04T08:16:51.029Z,967.57
2019-03-04T08:17:57.985Z,967.63
2019-03-04T08:19:04.937Z,967.59
2019-03-04T08:20:11.725Z,967.63
2019-03-04T08:21:18.678Z,967.54
2019-03-04T08:22:25.532Z,967.64
2019-03-04T08:23:32.519Z,967.56
2019-03-04T08:24:39.385Z,967.69
2019-03-04T08:25:46.202Z,967.51
2019-03-04T08:26:53.110Z,967.47
2019-03-04T08:27:59.998Z,967.57
2019-03-04T08:29:06.906Z,967.51
2019-03-04T08:30:14.028Z,967.46
2019-03-04T08:31:20.788Z,967.45
2019-03-04T08:32:27.748Z,967.49
2019-03-04T08:33:34.557Z,967.47
2019-03-04T08:34:41.373Z,967.52
2019-03-04T08:35:48.249Z,967.54
2019-03-04T08:36:55.235Z,967.64
2019-03-04T08:38:02.212Z,967.47
2019-03-04T08:39:09.148Z,967.52
2019-03-04T08:40:16.132Z,967.53
2019-03-04T08:41:23.088Z,967.48
2019-03-04T08:42:29.952Z,967.62
2019-03-04T08:43:36.870Z,967.59
2019-03-04T08:44:43.910Z,967.44
2019-03-04T08:45:50.765Z,967.47
2019-03-04T08:46:57.653Z,967.61
2019-03-04T08:48:04.532Z,967.50
2019-03-04T08:49:11.527Z,967.47
2019-03-04T08:50:19.190Z,967.67
2019-03-04T08:51:25.692Z,967.54
2019-03-04T08:52:32.593Z,967.52
2019-03-04T08:53:39.420Z,967.60
2019-03-04T08:54:46.312Z,967.67
2019-03-04T08:55:53.234Z,967.61
2019-03-04T08:57:03.899Z,967.64
2019-03-04T08:58:06.991Z,967.50
2019-03-04T08:59:13.913Z,967.58
2019-03-04T09:00:20.794Z,967.61
2019-03-04T09:01:27.757Z,967.59
2019-03-04T09:02:34.610Z,967.50
2019-03-04T09:03:41.400Z,967.58
2019-03-04T09:04:48.212Z,967.56
2019-03-04T09:05:55.020Z,967.58
2019-03-04T09:07:04.004Z,967.39
2019-03-04T09:08:08.885Z,967.48
2019-03-04T09:09:15.932Z,967.48
2019-03-04T09:10:22.793Z,967.43
2019-03-04T09:11:29.795Z,967.63
2019-03-04T09:12:36.830Z,967.54
2019-03-04T09:13:43.827Z,967.48
2019-03-04T09:14:50.790Z,967.61
2019-03-04T09:15:57.659Z,967.54
2019-03-04T09:17:04.702Z,967.42
2019-03-04T09:18:11.686Z,967.59
2019-03-04T09:19:18.563Z,967.60
2019-03-04T09:20:25.523Z,967.59
2019-03-04T09:21:32.518Z,967.50
2019-03-04T09:22:39.264Z,967.54
2019-03-04T09:23:46.358Z,967.49
2019-03-04T09:24:53.233Z,967.55
2019-03-04T09:26:00.025Z,967.55
2019-03-04T09:27:07.346Z,967.63
2019-03-04T09:28:14.188Z,967.54
2019-03-04T09:29:20.972Z,967.54
2019-03-04T09:30:27.959Z,967.41
2019-03-04T09:31:34.782Z,967.37
2019-03-04T09:32:41.681Z,967.42
2019-03-04T09:33:48.529Z,967.67
2019-03-04T09:34:55.298Z,967.51
2019-03-04T09:36:02.179Z,967.44
2019-03-04T09:37:09.068Z,967.56
2019-03-04T09:38:16.010Z,967.50
2019-03-04T09:39:22.844Z,967.43
2019-03-04T09:40:29.791Z,967.46
2019-03-04T09:41:36.449Z,967.47
2019-03-04T09:42:43.377Z,967.44
2019-03-04T09:43:50.442Z,967.46
2019-03-04T09:44:57.330Z,967.49
2019-03-04T09:46:04.184Z,967.21
2019-03-04T09:47:11.169Z,967.80
2019-03-04T09:48:18.122Z,967.56
2019-03-04T09:49:25.025Z,967.54
2019-03-04T09:50:31.865Z,967.49
2019-03-04T09:51:38.865Z,967.61
2019-03-04T09:52:45.705Z,967.43
2019-03-04T09:53:52.619Z,967.51
2019-03-04T09:54:59.777Z,967.37
2019-03-04T09:56:06.809Z,967.40
2019-03-04T09:57:13.789Z,967.44
2019-03-04T09:58:20.555Z,967.38
2019-03-04T09:59:27.448Z,967.35
2019-03-04T10:00:34.267Z,967.32
2019-03-04T10:01:41.574Z,967.31
2019-03-04T10:02:48.378Z,967.21
2019-03-04T10:03:55.196Z,967.31
2019-03-04T10:06:11.629Z,967.20
2019-03-04T10:07:17.937Z,967.09
2019-03-04T10:08:32.587Z,967.23
2019-03-04T10:09:31.801Z,967.05
2019-03-04T10:10:40.928Z,967.20
2019-03-04T10:11:45.632Z,967.21
2019-03-04T10:12:52.398Z,967.25
2019-03-04T10:13:59.449Z,967.16
2019-03-04T10:15:08.777Z,967.20
2019-03-04T10:16:18.742Z,967.42
2019-03-04T10:17:20.370Z,967.68
2019-03-04T10:18:27.256Z,967.34
2019-03-04T10:19:34.150Z,967.54
2019-03-04T10:20:41.591Z,967.34
2019-03-04T10:21:50.001Z,967.29
2019-03-04T10:22:55.136Z,967.57
2019-03-04T10:25:11.868Z,967.65
2019-03-04T10:26:22.720Z,967.58
2019-03-04T10:27:25.968Z,967.34
2019-03-04T10:28:32.832Z,967.44
2019-03-04T10:29:39.504Z,967.42
2019-03-04T10:30:46.488Z,967.49
2019-03-04T10:31:53.356Z,967.61
2019-03-04T10:33:00.305Z,967.57
2019-03-04T10:34:07.383Z,967.33
2019-03-04T10:35:14.478Z,967.45
2019-03-04T10:36:21.307Z,967.48
2019-03-04T10:37:28.295Z,967.47
2019-03-04T10:39:40.474Z,967.42
2019-03-04T10:40:47.564Z,967.40
2019-03-04T10:41:54.421Z,967.32
2019-03-04T10:43:00.984Z,967.43
2019-03-04T10:44:07.837Z,967.28
2019-03-04T10:46:24.491Z,967.34
2019-03-04T10:47:31.489Z,967.42
2019-03-04T10:48:38.356Z,967.54
2019-03-04T10:49:45.156Z,967.52
2019-03-04T10:50:51.975Z,967.82
2019-03-04T10:51:58.890Z,967.57
2019-03-04T10:53:05.769Z,967.99
2019-03-04T10:54:12.633Z,967.73
2019-03-04T10:55:19.514Z,967.74
2019-03-04T10:56:26.358Z,967.63
2019-03-04T10:57:33.469Z,967.76
2019-03-04T10:58:40.425Z,967.62
2019-03-04T10:59:47.470Z,967.50
2019-03-04T11:00:54.402Z,967.62
2019-03-04T11:02:01.408Z,967.52
2019-03-04T11:03:08.394Z,967.66
2019-03-04T11:04:15.476Z,967.48
2019-03-04T11:05:21.933Z,967.63
2019-03-04T11:06:28.724Z,967.65
2019-03-04T11:07:35.571Z,967.55
2019-03-04T11:08:42.444Z,967.61
2019-03-04T11:09:49.379Z,967.60
2019-03-04T11:10:56.320Z,967.67
2019-03-04T11:12:03.388Z,967.74
2019-03-04T11:13:10.097Z,967.51
2019-03-04T11:14:17.109Z,967.72
2019-03-04T11:15:24.066Z,967.62
2019-03-04T11:16:31.225Z,967.64
2019-03-04T11:17:38.281Z,967.64
2019-03-04T11:18:45.163Z,967.66
2019-03-04T11:19:52.197Z,967.69
2019-03-04T11:20:58.913Z,967.75
2019-03-04T11:22:05.766Z,967.65
2019-03-04T11:23:14.938Z,967.39
2019-03-04T11:24:19.786Z,967.58
2019-03-04T11:25:26.556Z,967.66
2019-03-04T11:26:33.633Z,967.69
2019-03-04T11:27:40.505Z,967.67
2019-03-04T11:28:47.476Z,967.71
2019-03-04T11:29:54.343Z,967.60
2019-03-04T11:31:01.220Z,967.64
2019-03-04T11:32:08.256Z,967.56
2019-03-04T11:33:15.497Z,967.62
2019-03-04T11:34:21.907Z,967.54
2019-03-04T11:35:28.742Z,967.60
2019-03-04T11:36:35.565Z,967.54
2019-03-04T11:37:42.276Z,967.44
2019-03-04T11:38:49.378Z,967.56
2019-03-04T11:39:56.441Z,967.52
2019-03-04T11:41:03.649Z,967.46
2019-03-04T11:42:10.577Z,967.54
2019-03-04T11:43:17.885Z,967.54
2019-03-04T11:44:24.120Z,967.72
2019-03-04T11:45:31.105Z,967.79
2019-03-04T11:46:37.975Z,967.60
2019-03-04T11:47:44.855Z,967.72
2019-03-04T11:48:52.209Z,967.64
2019-03-04T11:49:58.667Z,967.70
2019-03-04T11:51:05.545Z,967.57
2019-03-04T11:52:12.500Z,967.68
2019-03-04T11:53:19.565Z,967.72
2019-03-04T11:54:26.446Z,967.87
2019-03-04T11:55:33.305Z,967.80
2019-03-04T11:56:40.160Z,967.73
2019-03-04T11:57:47.032Z,967.69
2019-03-04T11:58:53.840Z,968.07
2019-03-04T12:00:00.696Z,968.17
2019-03-04T12:01:07.673Z,968.16
2019-03-04T12:02:14.713Z,967.93
2019-03-04T12:03:21.692Z,967.89
2019-03-04T12:04:28.560Z,968.15
2019-03-04T12:05:35.322Z,968.02
2019-03-04T12:06:43.211Z,967.97
2019-03-04T12:07:49.057Z,968.00
2019-03-04T12:08:56.021Z,967.99
2019-03-04T12:10:03.301Z,967.94
2019-03-04T12:11:09.599Z,967.83
2019-03-04T12:12:16.529Z,967.86
2019-03-04T12:13:23.389Z,967.83
2019-03-04T12:14:30.269Z,967.89
2019-03-04T12:15:37.129Z,967.86
2019-03-04T12:16:43.969Z,967.86
2019-03-04T12:17:50.883Z,967.82
2019-03-04T12:18:57.729Z,967.79
2019-03-04T12:20:04.708Z,967.87
2019-03-04T12:21:11.799Z,967.94
2019-03-04T12:22:18.235Z,967.70
2019-03-04T12:23:25.220Z,967.87
2019-03-04T12:24:32.073Z,967.80
2019-03-04T12:25:38.877Z,967.98
2019-03-04T12:26:45.717Z,967.91
2019-03-04T12:27:52.748Z,967.94
2019-03-04T12:28:59.645Z,967.96
2019-03-04T12:30:06.490Z,967.99
2019-03-04T12:31:13.457Z,967.91
2019-03-04T12:32:20.326Z,968.10
2019-03-04T12:33:27.077Z,968.04
2019-03-04T12:34:33.909Z,967.99
2019-03-04T12:35:40.668Z,968.12
2019-03-04T12:36:47.724Z,968.13
2019-03-04T12:37:54.476Z,967.92
2019-03-04T12:39:01.337Z,968.08
2019-03-04T12:40:07.974Z,968.11
2019-03-04T12:41:15.084Z,967.97
2019-03-04T12:42:21.976Z,968.16
2019-03-04T12:43:28.839Z,968.03
2019-03-04T12:44:35.649Z,968.03
2019-03-04T12:45:42.534Z,968.02
2019-03-04T12:46:49.352Z,967.96
2019-03-04T12:47:56.184Z,968.12
2019-03-04T12:49:03.245Z,968.23
2019-03-04T12:50:10.044Z,968.22
2019-03-04T12:51:23.013Z,968.32
2019-03-04T12:52:23.757Z,968.28
2019-03-04T12:53:37.289Z,968.27
2019-03-04T12:54:37.572Z,968.34
2019-03-04T12:55:44.453Z,968.36
2019-03-04T12:56:51.308Z,968.42
2019-03-04T12:57:58.130Z,968.67
2019-03-04T12:59:05.002Z,968.67
2019-03-04T13:00:11.918Z,968.85
2019-03-04T13:01:18.788Z,969.09
2019-03-04T13:02:25.765Z,969.00
2019-03-04T13:03:32.628Z,969.29
2019-03-04T13:04:39.596Z,969.34
2019-03-04T13:05:46.396Z,969.40
2019-03-04T13:06:53.226Z,969.41
2019-03-04T13:08:00.019Z,969.42
2019-03-04T13:09:14.062Z,969.63
2019-03-04T13:10:14.025Z,969.70
2019-03-04T13:11:20.927Z,969.71
2019-03-04T13:12:27.796Z,969.63
2019-03-04T13:13:34.644Z,969.79
2019-03-04T13:14:41.717Z,969.64
2019-03-04T13:15:48.685Z,969.87
2019-03-04T13:16:55.554Z,969.80
2019-03-04T13:18:02.449Z,969.80
2019-03-04T13:19:09.373Z,969.79
2019-03-04T13:20:16.349Z,969.84
2019-03-04T13:21:23.224Z,969.93
2019-03-04T13:22:30.121Z,969.79
2019-03-04T13:23:36.992Z,969.89
2019-03-04T13:24:44.163Z,969.82
2019-03-04T13:25:52.370Z,969.91
2019-03-04T13:26:58.176Z,969.99
2019-03-04T13:28:08.559Z,970.01
2019-03-04T13:29:12.128Z,970.04
2019-03-04T13:30:19.081Z,970.02
2019-03-04T13:31:25.744Z,970.12
2019-03-04T13:32:32.566Z,970.01
2019-03-04T13:33:39.375Z,970.05
2019-03-04T13:34:46.233Z,969.94
2019-03-04T13:35:53.113Z,969.84
2019-03-04T13:36:59.928Z,969.88
2019-03-04T13:38:06.733Z,970.01
2019-03-04T13:39:13.722Z,969.95
2019-03-04T13:40:20.666Z,970.07
2019-03-04T13:41:27.554Z,970.14
2019-03-04T13:42:34.383Z,970.31
